Time;durP1;ratioP1;P1;durP2;ratioP2;P2;SDS_P1;SDS_P2;PMS_P1;PMS_P2;Temp;Humidity;BMP_temperature;BMP_pressure;BME280_temperature;BME280_humidity;BME280_pressure;Samples;Min_cycle;Max_cycle;Signal;HPM_P1;HPM_P2
2022/08/09 00:01:37;;;;;;;5.22;3.33;;;16.30;99.90;;;;;;5051535;28;20199;-67
2022/08/09 00:04:04;;;;;;;6.32;3.10;;;16.40;99.90;;;;;;5051365;28;20210;-68
2022/08/09 00:06:32;;;;;;;4.30;2.88;;;16.10;99.90;;;;;;5047561;28;20238;-67
2022/08/09 00:08:59;;;;;;;5.10;3.15;;;16.10;99.90;;;;;;5052467;28;20203;-67
2022/08/09 00:11:25;;;;;;;4.30;3.10;;;16.20;99.90;;;;;;5051042;28;20195;-67
2022/08/09 00:13:54;;;;;;;3.25;2.95;;;16.20;99.90;;;;;;5051140;28;20587;-67
2022/08/09 00:16:20;;;;;;;6.20;2.92;;;16.30;99.90;;;;;;5052299;28;20199;-67
2022/08/09 00:18:48;;;;;;;3.53;2.85;;;16.20;99.90;;;;;;5053022;28;20555;-67
2022/08/09 00:21:15;;;;;;;5.22;3.40;;;16.20;99.90;;;;;;5033907;28;20203;-67
2022/08/09 00:23:42;;;;;;;7.28;3.20;;;16.20;99.90;;;;;;5052825;28;20203;-68
2022/08/09 00:26:09;;;;;;;4.75;3.28;;;16.20;99.90;;;;;;5052740;28;20205;-67
2022/08/09 00:28:36;;;;;;;4.75;3.40;;;16.20;99.90;;;;;;5052292;28;20210;-67
2022/08/09 00:31:04;;;;;;;4.78;3.40;;;15.90;99.90;;;;;;5052098;28;20206;-67
2022/08/09 00:33:31;;;;;;;4.93;3.35;;;15.90;99.90;;;;;;5052177;28;20669;-67
2022/08/09 00:35:59;;;;;;;6.05;3.28;;;15.70;99.90;;;;;;5051724;28;20199;-67
2022/08/09 00:38:26;;;;;;;4.63;2.90;;;15.70;99.90;;;;;;5052393;28;20198;-67
2022/08/09 00:40:53;;;;;;;3.80;2.97;;;15.60;99.90;;;;;;5052491;28;20642;-67
2022/08/09 00:43:20;;;;;;;5.82;3.15;;;15.50;99.90;;;;;;5052377;28;20560;-67
2022/08/09 00:45:47;;;;;;;4.00;3.42;;;15.40;99.90;;;;;;5052423;28;20217;-67
2022/08/09 00:48:16;;;;;;;3.67;3.13;;;15.40;99.90;;;;;;5052368;28;20202;-67
2022/08/09 00:50:43;;;;;;;3.67;3.17;;;15.50;99.90;;;;;;5042675;28;20203;-67
2022/08/09 00:53:11;;;;;;;4.75;3.38;;;15.60;99.90;;;;;;5046301;28;20672;-67
2022/08/09 00:55:38;;;;;;;6.30;2.97;;;15.70;99.90;;;;;;5051847;28;20210;-67
2022/08/09 00:58:05;;;;;;;3.60;3.10;;;15.60;99.90;;;;;;5052175;28;20676;-67
2022/08/09 01:00:32;;;;;;;4.20;3.40;;;15.30;99.90;;;;;;5051827;28;20658;-67
2022/08/09 01:03:12;;;;;;;5.63;3.30;;;15.40;99.90;;;;;;5051688;28;20191;-67
2022/08/09 01:05:46;;;;;;;6.68;3.38;;;15.40;99.90;;;;;;5038463;28;20215;-67
2022/08/09 01:08:20;;;;;;;3.53;3.20;;;15.20;99.90;;;;;;5032734;28;20220;-67
2022/08/09 01:10:55;;;;;;;6.35;3.60;;;15.20;99.90;;;;;;5033064;28;20220;-67
2022/08/09 01:13:31;;;;;;;4.10;3.47;;;15.10;99.90;;;;;;5051132;28;20229;-67
2022/08/09 01:16:00;;;;;;;6.85;3.25;;;15.20;99.90;;;;;;5052067;28;20570;-67
2022/08/09 01:18:30;;;;;;;5.90;3.77;;;15.30;99.90;;;;;;5052117;28;20203;-67
2022/08/09 01:21:16;;;;;;;6.75;3.13;;;15.20;99.90;;;;;;5040036;28;20551;-67
2022/08/09 01:23:54;;;;;;;3.92;3.10;;;15.40;99.90;;;;;;5040750;28;20214;-67
2022/08/09 01:26:38;;;;;;;6.22;4.20;;;15.30;99.90;;;;;;5044186;28;20206;-67
2022/08/09 01:29:08;;;;;;;5.70;3.17;;;15.10;99.90;;;;;;5054525;28;20574;-68
2022/08/09 01:31:38;;;;;;;4.45;3.38;;;15.20;99.90;;;;;;5054818;28;20202;-67
2022/08/09 01:34:07;;;;;;;6.90;3.70;;;15.10;99.90;;;;;;5054296;28;20232;-67
2022/08/09 01:36:36;;;;;;;5.17;3.43;;;15.10;99.90;;;;;;5052284;28;20593;-68
2022/08/09 01:39:03;;;;;;;6.20;3.67;;;15.20;99.90;;;;;;5052507;28;20203;-67
2022/08/09 01:41:34;;;;;;;6.10;3.55;;;15.20;99.90;;;;;;5045927;28;20199;-67
2022/08/09 01:44:03;;;;;;;6.27;3.67;;;15.20;99.90;;;;;;5046412;28;20195;-67
2022/08/09 01:46:32;;;;;;;5.00;3.42;;;15.20;99.90;;;;;;5055596;28;20199;-67
2022/08/09 01:49:03;;;;;;;4.23;3.37;;;15.00;99.90;;;;;;5055045;28;20203;-67
2022/08/09 01:51:33;;;;;;;5.75;3.55;;;15.00;99.90;;;;;;5055037;28;20202;-67
2022/08/09 01:54:02;;;;;;;3.83;3.27;;;15.00;99.90;;;;;;5054920;28;20592;-67
2022/08/09 01:56:33;;;;;;;4.87;3.30;;;15.00;99.90;;;;;;5054538;28;20654;-66
2022/08/09 01:59:03;;;;;;;7.27;4.10;;;14.90;99.90;;;;;;5055005;28;20203;-67
2022/08/09 02:01:33;;;;;;;3.40;3.10;;;15.10;99.90;;;;;;5054673;28;20203;-67
2022/08/09 02:04:01;;;;;;;6.17;3.80;;;14.90;99.90;;;;;;5054896;28;20202;-67
2022/08/09 02:09:16;;;;;;;5.85;3.40;;;14.60;99.90;;;;;;5054784;28;20213;-66
2022/08/09 02:11:44;;;;;;;4.35;3.22;;;14.60;99.90;;;;;;5054970;28;20528;-65
2022/08/09 02:14:14;;;;;;;4.10;3.47;;;14.70;99.90;;;;;;5054351;28;20215;-65
2022/08/09 02:16:43;;;;;;;6.20;3.80;;;14.60;99.90;;;;;;5054720;28;20206;-65
2022/08/09 02:19:10;;;;;;;4.33;3.93;;;14.70;99.90;;;;;;5054658;28;20209;-65
2022/08/09 02:21:41;;;;;;;4.13;3.27;;;14.50;99.90;;;;;;5054044;28;20692;-65
2022/08/09 02:24:11;;;;;;;5.37;3.47;;;14.30;99.90;;;;;;5054968;28;20676;-65
2022/08/09 02:26:40;;;;;;;4.20;3.57;;;14.40;99.90;;;;;;5054193;28;20195;-65
2022/08/09 02:29:13;;;;;;;5.80;3.60;;;14.50;99.90;;;;;;5054699;28;20209;-65
2022/08/09 02:31:44;;;;;;;5.50;3.43;;;14.60;99.90;;;;;;5054192;28;20234;-66
2022/08/09 02:34:15;;;;;;;6.00;4.00;;;14.60;99.90;;;;;;5053400;28;20689;-65
2022/08/09 02:36:46;;;;;;;5.88;3.58;;;14.60;99.90;;;;;;5054589;28;20199;-65
2022/08/09 02:39:19;;;;;;;4.87;3.80;;;14.50;99.90;;;;;;5054383;28;20203;-65
2022/08/09 02:41:50;;;;;;;6.27;3.57;;;14.40;99.90;;;;;;5050576;28;20256;-65
2022/08/09 02:44:23;;;;;;;7.67;4.07;;;14.40;99.90;;;;;;5054204;28;20209;-65
2022/08/09 02:46:54;;;;;;;6.60;3.50;;;14.50;99.90;;;;;;5054251;28;20203;-65
2022/08/09 02:49:21;;;;;;;8.07;3.90;;;14.50;99.90;;;;;;5054156;28;20269;-65
2022/08/09 02:51:53;;;;;;;6.73;3.70;;;14.40;99.90;;;;;;5053263;28;20199;-65
2022/08/09 02:54:22;;;;;;;5.13;3.53;;;14.40;99.90;;;;;;5042977;28;20695;-65
2022/08/09 02:56:52;;;;;;;8.17;3.70;;;14.50;99.90;;;;;;5053877;28;20203;-65
2022/08/09 02:59:22;;;;;;;5.50;3.87;;;14.50;99.90;;;;;;5053927;28;20211;-65
2022/08/09 03:01:50;;;;;;;4.40;3.47;;;14.60;99.90;;;;;;5053838;28;20214;-65
2022/08/09 03:04:18;;;;;;;5.27;3.60;;;14.50;99.90;;;;;;5053851;28;20525;-65
2022/08/09 03:06:46;;;;;;;4.43;3.73;;;14.30;99.90;;;;;;5053823;28;20205;-65
2022/08/09 03:09:14;;;;;;;5.40;4.10;;;14.40;99.90;;;;;;5053412;28;20686;-65
2022/08/09 03:11:43;;;;;;;5.90;4.37;;;14.20;99.90;;;;;;5053260;28;20676;-65
2022/08/09 03:14:11;;;;;;;4.63;3.47;;;14.30;99.90;;;;;;5053812;28;20595;-65
2022/08/09 03:16:40;;;;;;;5.33;3.90;;;14.20;99.90;;;;;;5053295;28;20198;-65
2022/08/09 03:19:07;;;;;;;5.07;4.00;;;14.10;99.90;;;;;;5053514;28;20211;-65
2022/08/09 03:21:36;;;;;;;4.27;3.87;;;14.10;99.90;;;;;;5053443;28;20566;-65
2022/08/09 03:24:03;;;;;;;6.27;4.03;;;14.10;99.90;;;;;;5052624;28;20282;-65
2022/08/09 03:26:33;;;;;;;4.90;3.90;;;14.00;99.90;;;;;;5053543;28;20648;-65
2022/08/09 03:29:01;;;;;;;6.67;4.17;;;13.90;99.90;;;;;;5052739;28;20203;-65
2022/08/09 03:31:28;;;;;;;5.17;4.33;;;13.90;99.90;;;;;;5053264;28;20214;-65
2022/08/09 03:33:57;;;;;;;7.73;6.00;;;13.80;99.90;;;;;;5053407;28;20219;-65
2022/08/09 03:36:25;;;;;;;6.77;4.50;;;14.00;99.90;;;;;;5049705;28;20563;-65
2022/08/09 03:38:51;;;;;;;4.40;3.93;;;14.10;99.90;;;;;;5053178;28;20242;-65
2022/08/09 03:41:19;;;;;;;5.73;4.40;;;13.90;99.90;;;;;;5053255;28;20195;-65
2022/08/09 03:43:47;;;;;;;6.77;4.47;;;13.90;99.90;;;;;;5053238;28;20213;-66
2022/08/09 03:46:13;;;;;;;8.70;4.50;;;13.80;99.90;;;;;;5052286;28;20569;-65
2022/08/09 03:48:42;;;;;;;6.83;4.50;;;13.70;99.90;;;;;;5053150;28;20556;-66
2022/08/09 03:51:13;;;;;;;9.23;5.10;;;13.90;99.90;;;;;;5049146;28;20198;-66
2022/08/09 03:53:40;;;;;;;6.93;4.70;;;13.90;99.90;;;;;;5034049;28;20200;-66
2022/08/09 03:56:08;;;;;;;10.67;5.47;;;14.00;99.90;;;;;;5033069;28;20211;-66
2022/08/09 03:58:35;;;;;;;7.90;4.97;;;14.00;99.90;;;;;;5033141;28;20207;-66
2022/08/09 04:01:03;;;;;;;5.77;4.73;;;14.00;99.90;;;;;;5032777;28;20227;-66
2022/08/09 04:03:31;;;;;;;6.80;4.60;;;13.90;99.90;;;;;;5032935;28;20204;-66
2022/08/09 04:05:58;;;;;;;8.40;5.10;;;14.00;99.90;;;;;;5047871;28;20206;-66
2022/08/09 04:08:26;;;;;;;7.87;4.30;;;13.80;99.90;;;;;;5053139;28;20201;-66
2022/08/09 04:10:53;;;;;;;7.00;4.50;;;13.90;99.90;;;;;;5051522;28;20211;-66
2022/08/09 04:13:20;;;;;;;6.53;4.97;;;14.10;99.90;;;;;;5045113;28;20198;-66
2022/08/09 04:15:47;;;;;;;6.73;4.67;;;14.40;99.90;;;;;;5032873;28;20237;-66
2022/08/09 04:18:13;;;;;;;6.37;4.57;;;14.60;99.90;;;;;;5032806;28;20199;-66
2022/08/09 04:20:40;;;;;;;7.77;5.00;;;14.60;99.90;;;;;;5032709;28;20219;-66
2022/08/09 04:23:08;;;;;;;8.43;5.23;;;14.60;99.90;;;;;;5032943;28;20192;-66
2022/08/09 04:25:36;;;;;;;6.07;4.63;;;14.20;99.90;;;;;;5032631;28;20199;-66
2022/08/09 04:28:03;;;;;;;10.23;4.60;;;14.30;99.90;;;;;;5032942;28;20200;-66
2022/08/09 04:30:30;;;;;;;6.33;4.30;;;14.40;99.90;;;;;;5032537;28;20204;-66
2022/08/09 04:32:58;;;;;;;7.33;5.07;;;14.30;99.90;;;;;;5032806;28;20211;-66
2022/08/09 04:35:25;;;;;;;7.97;4.40;;;14.40;99.90;;;;;;5032989;28;20235;-66
2022/08/09 04:37:52;;;;;;;5.97;4.30;;;14.40;99.90;;;;;;5032784;28;20657;-66
2022/08/09 04:40:19;;;;;;;7.40;5.03;;;14.20;99.90;;;;;;5032662;28;20199;-66
2022/08/09 04:42:48;;;;;;;4.97;4.00;;;14.30;99.90;;;;;;5032669;28;20208;-66
2022/08/09 04:45:15;;;;;;;6.63;4.63;;;14.30;99.90;;;;;;5032477;28;20647;-66
2022/08/09 04:47:42;;;;;;;5.57;4.50;;;14.30;99.90;;;;;;5032725;28;20668;-66
2022/08/09 04:50:09;;;;;;;4.63;4.07;;;14.20;99.90;;;;;;5032380;28;20210;-65
2022/08/09 04:52:36;;;;;;;6.47;4.40;;;14.20;99.90;;;;;;5032790;28;20587;-66
2022/08/09 04:55:03;;;;;;;7.37;4.70;;;14.40;99.90;;;;;;5032426;28;20225;-66
2022/08/09 04:57:30;;;;;;;8.13;4.50;;;14.50;99.90;;;;;;5034372;28;20203;-66
2022/08/09 04:59:58;;;;;;;8.50;4.60;;;14.60;99.90;;;;;;5036025;28;20219;-66
2022/08/09 05:02:25;;;;;;;7.90;5.00;;;14.60;99.90;;;;;;5036537;28;20665;-66
2022/08/09 05:04:52;;;;;;;5.63;4.80;;;14.70;99.90;;;;;;5043263;28;20202;-65
2022/08/09 05:07:19;;;;;;;7.23;5.00;;;14.80;99.90;;;;;;5056200;28;20191;-69
2022/08/09 05:09:46;;;;;;;7.27;5.00;;;14.80;99.90;;;;;;5054897;28;20759;-66
2022/08/09 05:12:13;;;;;;;9.10;5.72;;;15.20;99.90;;;;;;5040579;28;20202;-66
2022/08/09 05:14:40;;;;;;;9.67;5.30;;;15.60;99.90;;;;;;5035911;28;20241;-65
2022/08/09 05:17:08;;;;;;;6.20;5.20;;;15.40;99.90;;;;;;5035837;28;20219;-66
2022/08/09 05:19:35;;;;;;;7.95;5.30;;;15.40;99.90;;;;;;5036036;28;20681;-66
2022/08/09 05:22:03;;;;;;;9.07;5.73;;;15.30;99.90;;;;;;5036249;28;20191;-65
2022/08/09 05:24:30;;;;;;;6.17;4.83;;;15.60;99.90;;;;;;5036006;28;20553;-65
2022/08/09 05:26:57;;;;;;;8.65;5.35;;;16.30;99.90;;;;;;5035669;28;20214;-65
2022/08/09 05:29:24;;;;;;;9.95;5.28;;;16.10;99.90;;;;;;5035839;28;20208;-66
2022/08/09 05:31:52;;;;;;;7.47;4.97;;;15.90;99.90;;;;;;5035618;28;20199;-66
2022/08/09 05:34:20;;;;;;;6.88;5.05;;;15.80;99.90;;;;;;5035847;28;20253;-66
2022/08/09 05:36:47;;;;;;;10.02;5.15;;;15.80;99.90;;;;;;5035814;28;20630;-66
2022/08/09 05:39:14;;;;;;;9.48;5.72;;;16.10;99.90;;;;;;5035610;28;20291;-66
2022/08/09 05:41:41;;;;;;;8.07;5.13;;;16.00;99.90;;;;;;5035763;28;20214;-66
2022/08/09 05:44:08;;;;;;;8.23;5.45;;;15.80;99.90;;;;;;5035749;28;20214;-66
2022/08/09 05:46:35;;;;;;;10.35;5.70;;;16.00;99.90;;;;;;5035387;28;20203;-66
2022/08/09 05:49:01;;;;;;;9.25;5.45;;;15.90;99.90;;;;;;5035936;28;20210;-66
2022/08/09 05:51:30;;;;;;;7.25;5.10;;;16.10;99.90;;;;;;5035243;28;20210;-66
2022/08/09 05:53:57;;;;;;;8.13;5.13;;;16.40;99.90;;;;;;5035384;28;20218;-66
2022/08/09 05:56:23;;;;;;;5.07;4.45;;;16.50;99.90;;;;;;5035170;28;20223;-65
2022/08/09 05:58:53;;;;;;;7.75;4.53;;;16.60;99.90;;;;;;5035211;28;20203;-65
2022/08/09 06:01:20;;;;;;;6.50;4.38;;;16.60;99.90;;;;;;5035085;28;20662;-65
2022/08/09 06:03:47;;;;;;;8.48;4.40;;;16.70;99.90;;;;;;5035262;28;20407;-65
2022/08/09 06:06:15;;;;;;;6.78;4.45;;;16.60;99.90;;;;;;5034619;28;20203;-65
2022/08/09 06:08:43;;;;;;;6.70;4.57;;;16.70;99.90;;;;;;5033892;28;20231;-65
2022/08/09 06:11:10;;;;;;;7.43;4.95;;;16.70;99.90;;;;;;5035171;28;20724;-65
2022/08/09 06:13:38;;;;;;;7.15;4.72;;;16.80;99.90;;;;;;5045638;28;20683;-65
2022/08/09 06:16:05;;;;;;;7.82;4.72;;;16.70;99.90;;;;;;5054480;28;20219;-65
2022/08/09 06:18:32;;;;;;;7.30;4.57;;;16.90;99.90;;;;;;5054414;28;20570;-65
2022/08/09 06:20:59;;;;;;;13.02;4.90;;;17.20;99.90;;;;;;5050925;28;20198;-65
2022/08/09 06:23:27;;;;;;;8.45;4.53;;;17.30;99.90;;;;;;5054838;28;20294;-66
2022/08/09 06:25:56;;;;;;;7.38;4.75;;;17.40;99.90;;;;;;5054329;28;20194;-66
2022/08/09 06:28:23;;;;;;;7.03;4.90;;;17.50;99.90;;;;;;5054766;28;20564;-66
2022/08/09 06:30:49;;;;;;;8.88;4.68;;;17.70;99.90;;;;;;5046084;28;20645;-66
2022/08/09 06:33:16;;;;;;;5.57;4.13;;;17.40;99.90;;;;;;5054529;28;20199;-66
2022/08/09 06:35:43;;;;;;;7.15;4.72;;;17.30;99.90;;;;;;5039769;28;20229;-66
2022/08/09 06:38:10;;;;;;;7.13;4.85;;;17.40;99.90;;;;;;5034696;28;20203;-66
2022/08/09 06:40:37;;;;;;;9.77;4.68;;;17.40;99.90;;;;;;5034636;28;20207;-66
2022/08/09 06:43:05;;;;;;;6.72;4.30;;;17.50;99.90;;;;;;5034354;28;20200;-66
2022/08/09 06:45:32;;;;;;;6.15;4.13;;;17.60;99.90;;;;;;5034626;28;20200;-66
2022/08/09 06:47:59;;;;;;;7.88;4.35;;;17.50;99.90;;;;;;5034434;28;20208;-66
2022/08/09 06:50:26;;;;;;;8.35;4.50;;;17.70;99.90;;;;;;5034105;28;20210;-66
2022/08/09 06:52:53;;;;;;;9.38;4.57;;;17.90;99.90;;;;;;5034328;28;20203;-66
2022/08/09 06:55:22;;;;;;;6.53;4.50;;;18.10;99.90;;;;;;5034181;28;20219;-66
2022/08/09 06:57:49;;;;;;;7.00;4.00;;;18.10;99.90;;;;;;5034249;28;20215;-66
2022/08/09 07:00:18;;;;;;;6.60;4.13;;;18.30;99.90;;;;;;5033984;28;20212;-66
2022/08/09 07:02:45;;;;;;;10.88;4.13;;;18.30;99.90;;;;;;5034066;28;20208;-66
2022/08/09 07:05:12;;;;;;;10.25;4.20;;;18.60;99.90;;;;;;5034282;28;20221;-66
2022/08/09 07:07:38;;;;;;;8.13;4.50;;;18.80;99.90;;;;;;5033804;28;20210;-66
2022/08/09 07:10:06;;;;;;;5.15;4.32;;;18.90;99.90;;;;;;5033776;28;20658;-66
2022/08/09 07:12:33;;;;;;;7.43;4.25;;;18.50;99.90;;;;;;5033959;28;20200;-66
2022/08/09 07:15:00;;;;;;;5.57;4.22;;;18.50;99.90;;;;;;5033750;28;20219;-66
2022/08/09 07:17:28;;;;;;;6.75;4.10;;;19.00;99.90;;;;;;5033674;28;20545;-66
2022/08/09 07:19:55;;;;;;;7.57;4.50;;;18.80;99.90;;;;;;5033537;28;20556;-66
2022/08/09 07:22:22;;;;;;;10.05;4.68;;;18.80;99.90;;;;;;5034020;28;20234;-66
2022/08/09 07:24:49;;;;;;;6.45;4.40;;;18.80;99.90;;;;;;5033615;28;20216;-66
2022/08/09 07:27:16;;;;;;;7.15;4.63;;;18.90;99.90;;;;;;5033692;28;20204;-66
2022/08/09 07:29:43;;;;;;;8.10;4.25;;;19.00;99.90;;;;;;5033431;28;20211;-66
2022/08/09 07:32:10;;;;;;;7.15;4.43;;;19.10;99.90;;;;;;5033615;28;20211;-66
2022/08/09 07:34:38;;;;;;;5.78;3.75;;;19.10;99.90;;;;;;5038688;28;20206;-66
2022/08/09 07:37:05;;;;;;;8.40;4.13;;;19.10;99.90;;;;;;5053560;28;20559;-66
2022/08/09 07:39:32;;;;;;;7.63;4.25;;;19.20;99.90;;;;;;5046274;28;20205;-66
2022/08/09 07:41:59;;;;;;;5.40;3.90;;;19.20;99.90;;;;;;5040030;28;20207;-66
2022/08/09 07:44:26;;;;;;;6.43;3.85;;;19.40;99.90;;;;;;5033334;28;20210;-66
2022/08/09 07:46:52;;;;;;;5.95;3.80;;;19.30;99.90;;;;;;5033197;28;20203;-66
2022/08/09 07:49:19;;;;;;;7.25;4.55;;;19.50;99.90;;;;;;5033374;28;20215;-66
2022/08/09 07:51:47;;;;;;;6.47;3.55;;;19.50;99.90;;;;;;5033235;28;20210;-66
2022/08/09 07:54:15;;;;;;;5.00;3.90;;;19.80;99.90;;;;;;5033277;28;20212;-66
2022/08/09 07:56:42;;;;;;;4.75;3.80;;;19.60;99.90;;;;;;5032793;28;20223;-66
2022/08/09 07:59:09;;;;;;;6.68;3.90;;;19.80;99.90;;;;;;5032966;28;20204;-66
2022/08/09 08:01:36;;;;;;;8.02;3.72;;;19.80;99.90;;;;;;5033027;28;20221;-66
2022/08/09 08:04:03;;;;;;;7.55;4.32;;;20.10;99.90;;;;;;5033349;28;20527;-66
2022/08/09 08:06:31;;;;;;;6.72;3.92;;;20.00;99.90;;;;;;5032881;28;20199;-66
2022/08/09 08:08:59;;;;;;;4.15;3.50;;;20.00;99.90;;;;;;5032908;28;20204;-66
2022/08/09 08:11:26;;;;;;;5.80;4.40;;;20.10;99.90;;;;;;5032724;28;20204;-66
2022/08/09 08:13:53;;;;;;;5.50;4.15;;;20.30;99.90;;;;;;5033074;28;20222;-66
2022/08/09 08:16:20;;;;;;;6.15;3.83;;;20.20;99.90;;;;;;5032980;28;20226;-66
2022/08/09 08:18:47;;;;;;;7.20;4.35;;;20.30;99.90;;;;;;5033079;28;20673;-66
2022/08/09 08:21:14;;;;;;;8.23;4.32;;;20.60;99.90;;;;;;5032848;28;20546;-66
2022/08/09 08:23:41;;;;;;;6.25;4.20;;;20.60;99.90;;;;;;5032534;28;20208;-70
2022/08/09 08:26:09;;;;;;;6.88;3.85;;;20.50;99.90;;;;;;5031819;28;20253;-71
2022/08/09 08:28:36;;;;;;;11.57;3.92;;;20.60;99.90;;;;;;5032223;28;20204;-67
2022/08/09 08:31:04;;;;;;;3.75;3.40;;;20.80;99.90;;;;;;5031785;28;20945;-67
2022/08/09 08:33:31;;;;;;;6.40;3.60;;;20.90;99.90;;;;;;5035953;28;20203;-69
2022/08/09 08:35:58;;;;;;;6.85;3.70;;;21.10;99.90;;;;;;5035960;28;20274;-66
2022/08/09 08:38:25;;;;;;;5.43;3.58;;;21.20;99.60;;;;;;5036110;28;20249;-66
2022/08/09 08:40:54;;;;;;;5.45;3.80;;;21.30;99.90;;;;;;5035543;28;20591;-66
2022/08/09 08:43:23;;;;;;;5.65;3.58;;;21.20;92.00;;;;;;5036040;28;20195;-67
2022/08/09 08:45:53;;;;;;;3.97;3.58;;;21.20;90.40;;;;;;5036054;28;20334;-66
2022/08/09 08:48:21;;;;;;;5.95;3.72;;;21.50;82.50;;;;;;5035705;28;20207;-66
2022/08/09 08:50:48;;;;;;;6.03;3.13;;;21.30;84.60;;;;;;5035496;28;20285;-66
2022/08/09 08:53:15;;;;;;;7.47;3.50;;;21.30;86.80;;;;;;5035620;28;20286;-66
2022/08/09 08:55:43;;;;;;;5.28;3.22;;;21.60;74.70;;;;;;5035917;28;20314;-66
2022/08/09 08:58:10;;;;;;;7.15;3.70;;;21.70;68.60;;;;;;5035717;28;20206;-66
2022/08/09 09:00:41;;;;;;;4.60;3.60;;;21.50;68.20;;;;;;5035423;28;20254;-66
2022/08/09 09:03:10;;;;;;;6.70;3.50;;;21.80;69.00;;;;;;5035816;28;20207;-66
2022/08/09 09:05:37;;;;;;;6.47;3.97;;;22.10;79.30;;;;;;5043836;28;20278;-66
2022/08/09 09:08:06;;;;;;;5.50;3.38;;;22.40;72.60;;;;;;5054990;28;20629;-67
2022/08/09 09:10:34;;;;;;;4.78;3.20;;;22.30;61.40;;;;;;5054926;28;20253;-66
2022/08/09 09:13:03;;;;;;;4.75;3.13;;;22.60;58.10;;;;;;5055472;28;20215;-66
2022/08/09 09:15:30;;;;;;;5.53;3.90;;;22.90;56.90;;;;;;5055298;28;20195;-66
2022/08/09 09:17:58;;;;;;;3.97;3.40;;;22.90;51.10;;;;;;5055332;28;20288;-66
2022/08/09 09:20:25;;;;;;;5.50;3.20;;;23.20;52.90;;;;;;5051052;28;20203;-68
2022/08/09 09:22:54;;;;;;;8.70;3.38;;;23.40;44.50;;;;;;5044609;28;20211;-67
2022/08/09 09:25:34;;;;;;;4.00;3.40;;;23.60;47.70;;;;;;5035076;28;20651;-67
2022/08/09 09:28:03;;;;;;;4.55;3.25;;;23.80;37.20;;;;;;5035362;28;20200;-67
2022/08/09 09:30:31;;;;;;;5.68;3.03;;;24.10;34.80;;;;;;5034929;28;20207;-67
2022/08/09 09:33:07;;;;;;;10.50;3.55;;;24.60;33.40;;;;;;5035291;28;20196;-67
2022/08/09 09:35:50;;;;;;;8.70;3.75;;;24.70;36.60;;;;;;5035125;28;20207;-67
2022/08/09 09:38:17;;;;;;;4.60;3.33;;;24.60;36.00;;;;;;5048301;28;20217;-67
2022/08/09 09:40:45;;;;;;;5.95;3.63;;;24.70;34.30;;;;;;5034025;28;20204;-67
2022/08/09 09:43:19;;;;;;;4.38;3.20;;;24.60;30.90;;;;;;5034911;28;20258;-67
2022/08/09 09:45:51;;;;;;;6.13;3.58;;;24.80;28.00;;;;;;5033521;28;20196;-67
2022/08/09 09:48:21;;;;;;;4.65;3.67;;;24.80;27.50;;;;;;5034764;28;20200;-67
2022/08/09 09:50:50;;;;;;;4.28;3.30;;;24.60;28.30;;;;;;5043801;28;20241;-66
2022/08/09 09:53:19;;;;;;;5.65;3.22;;;24.60;25.50;;;;;;5054309;28;20230;-66
2022/08/09 09:55:56;;;;;;;5.95;2.97;;;24.60;24.70;;;;;;5047817;28;20225;-66
2022/08/09 09:58:23;;;;;;;4.47;3.25;;;24.80;24.80;;;;;;5054780;28;20637;-66
2022/08/09 10:00:53;;;;;;;3.75;3.00;;;24.90;25.00;;;;;;5053587;28;20207;-67
2022/08/09 10:03:40;;;;;;;6.03;3.35;;;25.20;20.70;;;;;;5054516;28;20203;-67
2022/08/09 10:06:08;;;;;;;6.45;3.45;;;25.10;22.90;;;;;;5036609;28;20539;-66
2022/08/09 10:08:35;;;;;;;7.15;3.65;;;25.00;22.70;;;;;;5034377;28;20200;-67
2022/08/09 10:11:20;;;;;;;6.05;3.40;;;25.20;20.70;;;;;;5033201;28;20206;-66
2022/08/09 10:13:47;;;;;;;3.83;3.15;;;25.20;20.80;;;;;;5034619;28;20212;-67
2022/08/09 10:16:15;;;;;;;4.28;2.90;;;25.30;18.40;;;;;;5034330;28;20694;-67
2022/08/09 10:18:54;;;;;;;8.77;3.10;;;25.30;22.30;;;;;;5034307;28;20657;-67
2022/08/09 10:21:23;;;;;;;5.25;3.05;;;25.50;19.00;;;;;;5033397;28;20634;-67
2022/08/09 10:23:51;;;;;;;4.38;3.20;;;25.50;19.40;;;;;;5034110;28;20208;-67
2022/08/09 10:26:20;;;;;;;4.63;3.30;;;25.90;19.30;;;;;;5034219;28;20238;-67
2022/08/09 10:28:47;;;;;;;4.00;3.40;;;25.80;18.70;;;;;;5034038;28;20243;-67
2022/08/09 10:31:16;;;;;;;5.05;3.67;;;25.60;18.20;;;;;;5033079;28;20240;-66
2022/08/09 10:33:43;;;;;;;11.02;3.47;;;25.20;16.40;;;;;;5033839;28;20208;-66
2022/08/09 10:36:13;;;;;;;6.47;3.17;;;25.50;20.00;;;;;;5033869;28;20235;-66
2022/08/09 10:38:42;;;;;;;4.30;3.08;;;25.90;17.10;;;;;;5033658;28;20337;-66
2022/08/09 10:41:10;;;;;;;4.90;3.63;;;25.90;17.50;;;;;;5033101;28;20650;-66
2022/08/09 10:43:42;;;;;;;3.45;3.15;;;26.20;14.50;;;;;;5033730;28;20614;-66
2022/08/09 10:46:39;;;;;;;5.90;3.45;;;26.00;14.70;;;;;;5033754;28;20261;-66
2022/08/09 10:49:13;;;;;;;3.75;3.17;;;26.60;11.10;;;;;;5033595;28;20254;-66
2022/08/09 10:51:51;;;;;;;3.63;3.08;;;26.30;13.10;;;;;;5031686;28;20669;-66
2022/08/09 10:54:23;;;;;;;5.10;3.22;;;26.20;12.60;;;;;;5031859;28;20200;-66
2022/08/09 10:57:07;;;;;;;6.22;2.92;;;26.30;12.50;;;;;;5033441;28;20760;-66
2022/08/09 10:59:36;;;;;;;7.25;4.13;;;25.90;15.60;;;;;;5033467;28;20204;-66
2022/08/09 11:02:06;;;;;;;3.22;2.92;;;25.70;15.70;;;;;;5032852;28;20210;-66
2022/08/09 11:04:34;;;;;;;4.35;3.10;;;25.90;13.50;;;;;;5033269;28;20257;-66
2022/08/09 11:07:32;;;;;;;3.42;3.13;;;26.10;15.10;;;;;;5033233;28;20265;-66
2022/08/09 11:09:59;;;;;;;4.88;3.20;;;26.20;12.50;;;;;;5032763;28;20653;-66
2022/08/09 11:12:27;;;;;;;4.03;3.25;;;25.90;16.40;;;;;;5033224;28;20199;-66
2022/08/09 11:14:56;;;;;;;4.22;3.10;;;25.70;15.20;;;;;;5033079;28;20234;-66
2022/08/09 11:17:51;;;;;;;5.90;3.33;;;26.00;14.30;;;;;;5032960;28;20259;-67
2022/08/09 11:20:21;;;;;;;5.30;3.42;;;26.10;12.80;;;;;;5039725;28;20647;-66
2022/08/09 11:23:03;;;;;;;3.90;3.15;;;26.10;12.90;;;;;;5053026;28;20570;-66
2022/08/09 11:25:44;;;;;;;4.15;3.08;;;26.10;12.60;;;;;;5043438;28;20257;-66
2022/08/09 11:28:38;;;;;;;4.93;3.10;;;26.40;11.50;;;;;;5033056;28;20206;-66
2022/08/09 11:31:46;;;;;;;4.63;3.17;;;27.10;8.10;;;;;;5033370;28;20668;-71
2022/08/09 11:34:42;;;;;;;6.72;3.47;;;26.80;8.50;;;;;;5044887;28;20226;-71
2022/08/09 11:37:11;;;;;;;3.22;2.95;;;26.70;10.80;;;;;;5024664;28;20219;-71
2022/08/09 11:40:02;;;;;;;5.13;3.20;;;26.50;10.00;;;;;;5033463;28;20203;-71
2022/08/09 11:42:39;;;;;;;6.57;3.50;;;26.50;11.50;;;;;;5033605;28;20211;-71
2022/08/09 11:45:22;;;;;;;3.22;2.92;;;26.90;12.70;;;;;;5033400;28;20210;-71
2022/08/09 11:47:50;;;;;;;4.70;3.42;;;26.50;11.70;;;;;;5032111;28;20203;-71
2022/08/09 11:50:17;;;;;;;3.40;3.08;;;26.70;9.80;;;;;;5033172;28;20528;-71
2022/08/09 11:53:21;;;;;;;3.22;2.90;;;26.80;10.40;;;;;;5033578;28;20203;-71
2022/08/09 11:55:51;;;;;;;3.85;2.97;;;26.80;6.50;;;;;;5033260;28;20593;-71
2022/08/09 11:58:44;;;;;;;5.03;2.92;;;26.60;7.90;;;;;;5033239;28;20223;-71
2022/08/09 12:01:12;;;;;;;3.47;3.05;;;27.60;7.30;;;;;;5028345;28;20797;-72
2022/08/09 12:03:39;;;;;;;3.72;3.00;;;27.00;8.70;;;;;;5032993;28;20204;-71
2022/08/09 12:06:15;;;;;;;4.35;3.20;;;26.70;9.00;;;;;;5032444;28;20210;-71
2022/08/09 12:08:51;;;;;;;5.25;3.30;;;26.50;10.80;;;;;;5031599;28;20215;-71
2022/08/09 12:11:25;;;;;;;5.20;3.20;;;26.90;12.20;;;;;;5032739;28;20203;-71
2022/08/09 12:13:54;;;;;;;5.22;3.15;;;27.10;9.40;;;;;;5033277;28;20634;-72
2022/08/09 12:16:24;;;;;;;4.55;3.03;;;26.70;9.40;;;;;;5032909;28;20681;-71
2022/08/09 12:18:52;;;;;;;3.03;2.70;;;27.10;11.30;;;;;;5032850;28;20298;-71
2022/08/09 12:21:28;;;;;;;3.33;2.70;;;27.50;7.20;;;;;;5046222;28;20660;-71
2022/08/09 12:23:55;;;;;;;5.13;2.70;;;27.60;7.40;;;;;;5045469;28;20210;-71
2022/08/09 12:26:24;;;;;;;4.03;2.63;;;27.50;7.70;;;;;;5052842;28;20210;-71
2022/08/09 12:28:52;;;;;;;3.53;2.80;;;26.80;6.80;;;;;;5052705;28;20207;-71
2022/08/09 12:31:25;;;;;;;5.50;3.17;;;27.00;8.00;;;;;;5052546;28;20565;-71
2022/08/09 12:33:53;;;;;;;5.18;3.13;;;27.40;8.20;;;;;;5052177;28;20555;-71
2022/08/09 12:36:21;;;;;;;4.55;2.80;;;27.20;7.30;;;;;;5046345;28;20629;-71
2022/08/09 12:38:49;;;;;;;4.15;2.90;;;27.50;6.10;;;;;;5044567;28;20199;-71
2022/08/09 12:41:23;;;;;;;4.53;2.78;;;26.70;8.80;;;;;;5051941;28;20889;-71
2022/08/09 12:43:52;;;;;;;2.65;2.33;;;26.30;8.30;;;;;;5060738;28;20197;-71
2022/08/09 12:46:19;;;;;;;5.50;2.60;;;26.80;9.30;;;;;;5061373;28;20195;-71
2022/08/09 12:48:46;;;;;;;4.25;3.10;;;26.70;8.70;;;;;;5063221;28;20207;-71
2022/08/09 12:51:13;;;;;;;4.93;3.10;;;26.30;9.20;;;;;;5045730;28;20203;-71
2022/08/09 12:53:40;;;;;;;5.65;2.90;;;26.60;7.50;;;;;;5061639;28;20199;-72
2022/08/09 12:56:10;;;;;;;4.00;2.50;;;26.80;8.40;;;;;;5062785;28;20201;-71
2022/08/09 12:58:38;;;;;;;2.72;2.50;;;26.70;8.00;;;;;;5071135;28;20287;-71
2022/08/09 13:01:19;;;;;;;4.75;3.10;;;26.40;7.00;;;;;;5072055;28;20218;-71
2022/08/09 13:03:57;;;;;;;4.38;2.80;;;26.70;9.20;;;;;;5058771;28;20203;-71